KEVV/EVV METAR and TAF weather

Enter ICAO airport designator
Station Type Date Time Source
KEVV METAR 2019/06/20 06:54 UTC NOAA

KEVV 200654Z AUTO 18003KT 9SM FEW050 BKN080 20/20 A2962 RMK AO2 SLP027 T02000200


Station Type Date Time Source
KEVV Decoded METAR 2019/06/20 06:54 UTC NOAA

EVANSVILLE REGIONAL, IN, United States (KEVV) 38-02N 087-32W 117M
Jun 20, 2019 - 02:54 AM EDT / 2019.06.20 0654 UTC
Wind: from the S (180 degrees) at 3 MPH (3 KT):0
Visibility: 9 mile(s):0
Sky conditions: mostly cloudy
Temperature: 68.0 F (20.0 C)
Dew Point: 68.0 F (20.0 C)
Relative Humidity: 100%
Pressure (altimeter): 29.62 in. Hg (1003 hPa)
ob: KEVV 200654Z AUTO 18003KT 9SM FEW050 BKN080 20/20 A2962 RMK AO2 SLP027 T02000200
cycle: 7

Station Type Date Time Source
KEVV TAF 2019/06/20 06:22 UTC NOAA

TAF KEVV 200520Z 2006/2106 21005KT P6SM SCT090 BKN200
TEMPO 2006/2007 BKN006
FM200900 24007KT P6SM BKN100
FM201200 26009KT P6SM OVC013
FM201700 29011KT P6SM BKN023
FM202100 00000KT P6SM BKN120

Example: see airport list